createdAt,value
2018-01-05T00:00:58.642Z,9.77
2018-01-05T00:03:27.302Z,9.61
2018-01-05T00:05:56.432Z,9.57
2018-01-05T00:08:24.080Z,9.57
2018-01-05T00:10:51.797Z,9.58
2018-01-05T00:13:20.891Z,9.58
2018-01-05T00:15:50.330Z,9.56
2018-01-05T00:18:19.958Z,9.54
2018-01-05T00:20:49.343Z,9.56
2018-01-05T00:23:17.506Z,9.57
2018-01-05T00:25:46.990Z,9.57
2018-01-05T00:28:15.152Z,9.59
2018-01-05T00:30:48.090Z,9.59
2018-01-05T00:33:19.111Z,9.60
2018-01-05T00:35:53.285Z,9.59
2018-01-05T00:38:21.787Z,9.64
2018-01-05T00:40:50.535Z,9.64
2018-01-05T00:43:18.181Z,9.67
2018-01-05T00:45:47.439Z,9.68
2018-01-05T00:48:18.112Z,9.71
2018-01-05T00:50:47.070Z,9.72
2018-01-05T00:53:14.721Z,9.75
2018-01-05T00:55:43.532Z,9.74
2018-01-05T00:58:12.931Z,9.75
2018-01-05T01:00:42.063Z,9.77
2018-01-05T01:03:09.742Z,9.77
2018-01-05T01:05:39.459Z,9.79
2018-01-05T01:08:10.284Z,9.79
2018-01-05T01:10:38.662Z,9.80
2018-01-05T01:13:09.702Z,9.79
2018-01-05T01:15:37.312Z,9.82
2018-01-05T01:18:07.395Z,9.81
2018-01-05T01:20:42.741Z,9.81
2018-01-05T01:23:11.491Z,9.81
2018-01-05T01:25:42.596Z,9.84
2018-01-05T01:28:14.062Z,9.84
2018-01-05T01:30:46.379Z,9.86
2018-01-05T01:33:14.782Z,9.84
2018-01-05T01:35:43.532Z,9.87
2018-01-05T01:38:16.226Z,9.88
2018-01-05T01:40:47.866Z,9.88
2018-01-05T01:43:19.807Z,9.88
2018-01-05T01:45:53.488Z,9.84
2018-01-05T01:48:22.054Z,9.81
2018-01-05T01:50:50.397Z,9.82
2018-01-05T01:53:25.875Z,9.79
2018-01-05T01:55:55.219Z,9.82
2018-01-05T01:58:25.961Z,9.80
2018-01-05T02:00:54.539Z,9.81
2018-01-05T02:03:22.579Z,9.84
2018-01-05T02:05:53.712Z,9.77
2018-01-05T02:08:24.954Z,9.74
2018-01-05T02:10:54.223Z,9.74
2018-01-05T02:13:25.524Z,9.71
2018-01-05T02:15:55.819Z,9.72
2018-01-05T02:18:25.752Z,9.70
2018-01-05T02:20:56.131Z,9.70
2018-01-05T02:23:27.182Z,9.65
2018-01-05T02:28:45.477Z,9.67
2018-01-05T02:31:16.204Z,9.66
2018-01-05T02:33:46.780Z,9.66
2018-01-05T02:36:19.537Z,9.67
2018-01-05T02:38:48.185Z,9.66
2018-01-05T02:41:20.963Z,9.66
2018-01-05T02:43:51.610Z,9.67
2018-01-05T02:46:24.417Z,9.69
2018-01-05T02:48:54.366Z,9.65
2018-01-05T02:51:22.897Z,9.65
2018-01-05T02:53:53.497Z,9.67
2018-01-05T02:56:23.131Z,9.64
2018-01-05T02:58:51.969Z,9.67
2018-01-05T03:01:28.663Z,9.67
2018-01-05T03:03:58.706Z,9.64
2018-01-05T03:06:31.477Z,9.64
2018-01-05T03:09:03.753Z,9.62
2018-01-05T03:11:32.489Z,9.62
2018-01-05T03:14:03.000Z,9.65
2018-01-05T03:16:31.903Z,9.68
2018-01-05T03:19:01.772Z,9.68
2018-01-05T03:21:30.148Z,9.67
2018-01-05T03:23:58.037Z,9.71
2018-01-05T03:26:27.272Z,9.64
2018-01-05T03:28:57.493Z,9.65
2018-01-05T03:31:27.224Z,9.64
2018-01-05T03:33:56.665Z,9.68
2018-01-05T03:36:26.428Z,9.68
2018-01-05T03:39:01.889Z,9.68
2018-01-05T03:41:30.105Z,9.68
2018-01-05T03:43:59.596Z,9.72
2018-01-05T03:46:29.106Z,9.72
2018-01-05T03:49:00.446Z,9.72
2018-01-05T03:51:33.833Z,9.70
2018-01-05T03:54:02.538Z,9.69
2018-01-05T03:56:33.497Z,9.67
2018-01-05T03:59:06.828Z,9.63
2018-01-05T04:01:35.430Z,9.61
2018-01-05T04:04:05.009Z,9.59
2018-01-05T04:06:35.190Z,9.54
2018-01-05T04:09:04.031Z,9.50
2018-01-05T04:11:34.189Z,9.44
2018-01-05T04:14:02.694Z,9.33
2018-01-05T04:16:32.193Z,9.22
2018-01-05T04:19:00.706Z,9.22
2018-01-05T04:21:28.998Z,9.19
2018-01-05T04:24:00.016Z,9.14
2018-01-05T04:26:31.661Z,9.06
2018-01-05T04:29:02.687Z,9.06
2018-01-05T04:31:32.461Z,9.06
2018-01-05T04:34:01.795Z,9.05
2018-01-05T04:36:31.456Z,9.10
2018-01-05T04:39:00.989Z,9.07
2018-01-05T04:41:30.119Z,9.05
2018-01-05T04:44:03.776Z,9.03
2018-01-05T04:49:08.139Z,9.01
2018-01-05T04:51:37.474Z,9.08
2018-01-05T04:54:06.178Z,9.12
2018-01-05T04:56:35.959Z,9.15
2018-01-05T04:59:03.677Z,9.24
2018-01-05T05:01:32.489Z,9.31
2018-01-05T05:04:00.942Z,9.36
2018-01-05T05:06:29.759Z,9.37
2018-01-05T05:09:01.254Z,9.43
2018-01-05T05:11:30.646Z,9.47
2018-01-05T05:14:02.347Z,9.51
2018-01-05T05:16:31.647Z,9.54
2018-01-05T05:19:02.633Z,9.59
2018-01-05T05:21:30.314Z,9.74
2018-01-05T05:24:01.244Z,9.79
2018-01-05T05:26:33.548Z,9.96
2018-01-05T05:29:01.163Z,10.15
2018-01-05T05:31:29.743Z,10.24
2018-01-05T05:33:58.939Z,10.31
2018-01-05T05:36:27.759Z,10.33
2018-01-05T05:38:55.523Z,10.36
2018-01-05T05:41:24.224Z,10.39
2018-01-05T05:43:55.158Z,10.37
2018-01-05T05:46:24.949Z,10.36
2018-01-05T05:48:56.679Z,10.38
2018-01-05T05:51:27.024Z,10.38
2018-01-05T05:53:56.008Z,10.36
2018-01-05T05:56:30.647Z,10.33
2018-01-05T05:59:01.032Z,10.31
2018-01-05T06:01:29.025Z,10.32
2018-01-05T06:03:58.698Z,10.34
2018-01-05T06:06:28.698Z,10.38
2018-01-05T06:08:57.085Z,10.40
2018-01-05T06:11:27.823Z,10.40
2018-01-05T06:13:57.063Z,10.47
2018-01-05T06:16:26.694Z,10.50
2018-01-05T06:18:58.787Z,10.54
2018-01-05T06:21:26.577Z,10.56
2018-01-05T06:23:58.213Z,10.60
2018-01-05T06:26:25.889Z,10.62
2018-01-05T06:28:54.529Z,10.61
2018-01-05T06:31:24.348Z,10.61
2018-01-05T06:33:53.849Z,10.59
2018-01-05T06:36:23.893Z,10.60
2018-01-05T06:38:51.500Z,10.63
2018-01-05T06:46:30.763Z,10.60
2018-01-05T06:49:03.593Z,10.59
2018-01-05T06:51:32.546Z,10.63
2018-01-05T06:54:01.377Z,10.64
2018-01-05T06:56:29.983Z,10.60
2018-01-05T06:59:00.892Z,10.59
2018-01-05T07:01:30.336Z,10.54
2018-01-05T07:04:00.113Z,10.58
2018-01-05T07:06:31.442Z,10.56
2018-01-05T07:09:00.748Z,10.57
2018-01-05T07:11:29.107Z,10.55
2018-01-05T07:13:57.481Z,10.49
2018-01-05T07:16:27.283Z,10.51
2018-01-05T07:18:55.974Z,10.53
2018-01-05T07:21:25.449Z,10.50
2018-01-05T07:23:53.742Z,10.45
2018-01-05T07:26:23.122Z,10.47
2018-01-05T07:28:52.566Z,10.45
2018-01-05T07:31:22.009Z,10.39
2018-01-05T07:33:51.887Z,10.38
2018-01-05T07:36:20.584Z,10.40
2018-01-05T07:38:49.100Z,10.39
2018-01-05T07:41:18.577Z,10.39
2018-01-05T07:43:47.445Z,10.38
2018-01-05T07:46:19.085Z,10.38
2018-01-05T07:48:46.963Z,10.40
2018-01-05T07:51:15.389Z,10.35
2018-01-05T07:53:53.078Z,10.36
2018-01-05T07:56:21.529Z,10.37
2018-01-05T07:58:49.862Z,10.37
2018-01-05T08:01:19.591Z,10.35
2018-01-05T08:03:49.805Z,10.38
2018-01-05T08:06:19.773Z,10.37
2018-01-05T08:08:49.503Z,10.39
2018-01-05T08:11:17.235Z,10.37
2018-01-05T08:13:46.262Z,10.41
2018-01-05T08:16:16.219Z,10.40
2018-01-05T08:18:48.231Z,10.45
2018-01-05T08:21:19.684Z,10.45
2018-01-05T08:23:49.812Z,10.46
2018-01-05T08:26:19.092Z,10.44
2018-01-05T08:28:51.046Z,10.48
2018-01-05T08:31:19.492Z,10.46
2018-01-05T08:33:50.870Z,10.46
2018-01-05T08:36:19.536Z,10.44
2018-01-05T08:38:50.167Z,10.43
2018-01-05T08:41:18.159Z,10.38
2018-01-05T08:43:45.803Z,10.35
2018-01-05T08:46:13.415Z,10.37
2018-01-05T08:48:41.828Z,10.32
2018-01-05T08:51:11.011Z,10.32
2018-01-05T08:53:39.444Z,10.31
2018-01-05T08:56:08.228Z,10.30
2018-01-05T08:58:36.663Z,10.28
2018-01-05T09:01:06.102Z,10.28
2018-01-05T09:03:35.976Z,10.26
2018-01-05T09:06:05.225Z,10.23
2018-01-05T09:08:39.167Z,10.22
2018-01-05T09:11:08.340Z,10.20
2018-01-05T09:13:37.394Z,10.21
2018-01-05T09:16:05.140Z,10.20
2018-01-05T09:18:34.962Z,10.18
2018-01-05T09:21:02.585Z,10.18
2018-01-05T09:23:32.519Z,10.16
2018-01-05T09:26:00.499Z,10.16
2018-01-05T09:28:30.147Z,10.17
2018-01-05T09:30:58.364Z,10.16
2018-01-05T09:33:28.234Z,10.14
2018-01-05T09:35:57.883Z,10.14
2018-01-05T09:38:30.925Z,10.14
2018-01-05T09:41:03.016Z,10.16
2018-01-05T09:43:32.580Z,10.21
2018-01-05T09:46:01.044Z,10.21
2018-01-05T09:48:30.956Z,10.22
2018-01-05T09:51:04.046Z,10.25
2018-01-05T09:53:32.678Z,10.26
2018-01-05T09:56:01.019Z,10.25
2018-01-05T09:58:28.891Z,10.25
2018-01-05T10:00:58.462Z,10.22
2018-01-05T10:03:27.746Z,10.23
2018-01-05T10:05:56.137Z,10.22
2018-01-05T10:08:28.572Z,10.19
2018-01-05T10:10:56.209Z,10.23
2018-01-05T10:13:23.863Z,10.25
2018-01-05T10:15:51.585Z,10.27
2018-01-05T10:18:21.777Z,10.32
2018-01-05T10:20:50.914Z,10.32
2018-01-05T10:23:22.127Z,10.33
2018-01-05T10:25:52.187Z,10.36
2018-01-05T10:28:22.548Z,10.40
2018-01-05T10:30:53.400Z,10.39
2018-01-05T10:33:26.843Z,10.39
2018-01-05T10:36:01.847Z,10.46
2018-01-05T10:38:30.201Z,10.56
2018-01-05T10:40:58.635Z,10.54
2018-01-05T10:43:27.873Z,10.53
2018-01-05T10:45:55.512Z,10.53
2018-01-05T10:48:25.306Z,10.57
2018-01-05T10:50:53.188Z,10.60
2018-01-05T10:53:22.752Z,10.61
2018-01-05T10:55:51.213Z,10.63
2018-01-05T10:58:21.768Z,10.62
2018-01-05T11:00:49.370Z,10.66
2018-01-05T11:03:19.026Z,10.70
2018-01-05T11:05:47.055Z,10.71
2018-01-05T11:08:14.720Z,10.69
2018-01-05T11:10:44.050Z,10.66
2018-01-05T11:13:12.928Z,10.68
2018-01-05T11:15:42.176Z,10.67
2018-01-05T11:18:09.913Z,10.69
2018-01-05T11:20:43.289Z,10.70
2018-01-05T11:23:16.225Z,10.72
2018-01-05T11:25:47.932Z,10.71
2018-01-05T11:28:15.834Z,10.74
2018-01-05T11:30:45.772Z,10.73
2018-01-05T11:33:18.362Z,10.76
2018-01-05T11:35:48.157Z,10.82
2018-01-05T11:38:17.722Z,10.79
2018-01-05T11:40:46.970Z,10.77
2018-01-05T11:43:18.668Z,10.76
2018-01-05T11:45:49.345Z,10.78
2018-01-05T11:48:17.812Z,10.81
2018-01-05T11:50:45.465Z,10.79
2018-01-05T11:53:17.191Z,10.77
2018-01-05T11:55:50.532Z,10.90
2018-01-05T11:58:22.697Z,10.88
2018-01-05T12:00:54.577Z,10.91
2018-01-05T12:03:22.873Z,10.90
2018-01-05T12:05:50.842Z,10.88
2018-01-05T12:08:19.742Z,10.85
2018-01-05T12:10:49.789Z,10.86
2018-01-05T12:13:20.552Z,10.80
2018-01-05T12:15:49.588Z,10.77
2018-01-05T12:18:17.648Z,10.76
2018-01-05T12:20:47.216Z,10.75
2018-01-05T12:23:19.573Z,10.73
2018-01-05T12:25:51.413Z,10.76
2018-01-05T12:28:21.077Z,10.75
2018-01-05T12:30:53.288Z,10.74
2018-01-05T12:33:23.874Z,10.79
2018-01-05T12:35:53.262Z,10.78
2018-01-05T12:38:23.644Z,10.77
2018-01-05T12:40:55.687Z,10.78
2018-01-05T12:43:26.284Z,10.80
2018-01-05T12:45:58.378Z,10.79
2018-01-05T12:48:27.387Z,10.81
2018-01-05T12:50:58.058Z,10.81
2018-01-05T12:53:27.243Z,10.79
2018-01-05T12:55:58.965Z,10.76
2018-01-05T12:58:26.720Z,10.81
2018-01-05T13:00:56.233Z,10.84
2018-01-05T13:03:26.977Z,10.83
2018-01-05T13:05:55.771Z,10.82
2018-01-05T13:08:25.189Z,10.79
2018-01-05T13:10:54.816Z,10.80
2018-01-05T13:13:26.685Z,10.81
2018-01-05T13:15:55.256Z,10.81
2018-01-05T13:18:23.919Z,10.84
2018-01-05T13:20:54.658Z,10.86
2018-01-05T13:23:24.913Z,10.83
2018-01-05T13:26:03.843Z,10.86
2018-01-05T13:28:32.262Z,10.87
2018-01-05T13:31:02.445Z,10.84
2018-01-05T13:33:32.651Z,10.80
2018-01-05T13:36:03.035Z,10.83
2018-01-05T13:38:33.908Z,10.83
2018-01-05T13:41:02.760Z,10.82
2018-01-05T13:43:30.636Z,10.89
2018-01-05T13:46:00.659Z,10.84
2018-01-05T13:48:29.226Z,10.83
2018-01-05T13:51:05.650Z,10.83
2018-01-05T13:53:33.392Z,10.83
2018-01-05T13:56:07.036Z,10.85
2018-01-05T13:58:37.212Z,10.87
2018-01-05T14:01:05.562Z,10.91
2018-01-05T14:03:33.427Z,10.93
2018-01-05T14:06:02.406Z,10.96
2018-01-05T14:08:34.550Z,10.96
2018-01-05T14:11:05.204Z,10.99
2018-01-05T14:13:34.202Z,10.98
2018-01-05T14:16:03.764Z,11.03
2018-01-05T14:18:35.911Z,11.10
2018-01-05T14:21:08.838Z,11.14
2018-01-05T14:23:40.617Z,11.15
2018-01-05T14:26:09.966Z,11.16
2018-01-05T14:28:38.578Z,11.10
2018-01-05T14:31:06.928Z,11.03
2018-01-05T14:33:37.360Z,10.98
2018-01-05T14:36:08.940Z,10.98
2018-01-05T14:38:38.240Z,11.00
2018-01-05T14:41:06.446Z,11.01
2018-01-05T14:43:39.637Z,11.07
2018-01-05T14:46:09.004Z,11.05
2018-01-05T14:48:40.298Z,11.02
2018-01-05T14:51:13.528Z,10.97
2018-01-05T14:53:42.021Z,10.90
2018-01-05T14:56:11.090Z,10.90
2018-01-05T14:58:38.924Z,10.86
2018-01-05T15:01:07.501Z,10.83
2018-01-05T15:03:39.078Z,10.76
2018-01-05T15:06:09.022Z,10.75
2018-01-05T15:08:39.807Z,10.73
2018-01-05T15:11:07.558Z,10.73
2018-01-05T15:13:36.244Z,10.68
2018-01-05T15:16:06.635Z,10.64
2018-01-05T15:18:42.338Z,10.61
2018-01-05T15:21:12.137Z,10.59
2018-01-05T15:23:41.163Z,10.55
2018-01-05T15:26:12.317Z,10.52
2018-01-05T15:28:47.161Z,10.48
2018-01-05T15:31:18.500Z,10.48
2018-01-05T15:33:48.366Z,10.41
2018-01-05T15:36:16.803Z,10.35
2018-01-05T15:38:46.682Z,10.32
2018-01-05T15:41:16.729Z,10.32
2018-01-05T15:43:45.533Z,10.32
2018-01-05T15:46:15.778Z,10.32
2018-01-05T15:48:44.263Z,10.34
2018-01-05T15:51:17.132Z,10.38
2018-01-05T15:53:46.393Z,10.38
2018-01-05T15:56:16.439Z,10.37
2018-01-05T15:58:47.058Z,10.34
2018-01-05T16:01:16.152Z,10.37
2018-01-05T16:03:46.177Z,10.39
2018-01-05T16:06:17.556Z,10.39
2018-01-05T16:08:46.990Z,10.39
2018-01-05T16:11:15.456Z,10.38
2018-01-05T16:13:44.042Z,10.37
2018-01-05T16:16:16.187Z,10.34
2018-01-05T16:18:45.885Z,10.33
2018-01-05T16:21:15.341Z,10.30
2018-01-05T16:23:43.092Z,10.25
2018-01-05T16:26:15.777Z,10.28
2018-01-05T16:28:44.757Z,10.31
2018-01-05T16:31:12.443Z,10.34
2018-01-05T16:33:44.689Z,10.32
2018-01-05T16:36:21.637Z,10.35
2018-01-05T16:38:52.165Z,10.33
2018-01-05T16:41:20.645Z,10.32
2018-01-05T16:43:51.483Z,10.32
2018-01-05T16:46:22.992Z,10.31
2018-01-05T16:48:54.323Z,10.30
2018-01-05T16:51:23.526Z,10.31
2018-01-05T16:53:52.167Z,10.32
2018-01-05T16:56:23.802Z,10.30
2018-01-05T16:58:52.682Z,10.28
2018-01-05T17:01:22.839Z,10.27
2018-01-05T17:03:53.045Z,10.28
2018-01-05T17:06:23.114Z,10.28
2018-01-05T17:08:54.839Z,10.30
2018-01-05T17:11:25.809Z,10.30
2018-01-05T17:13:55.453Z,10.26
2018-01-05T17:16:25.855Z,10.25
2018-01-05T17:18:55.111Z,10.24
2018-01-05T17:21:23.182Z,10.22
2018-01-05T17:23:53.655Z,10.21
2018-01-05T17:26:21.448Z,10.19
2018-01-05T17:28:54.059Z,10.20
2018-01-05T17:31:22.580Z,10.23
2018-01-05T17:33:54.137Z,10.25
2018-01-05T17:36:22.472Z,10.24
2018-01-05T17:38:50.174Z,10.23
2018-01-05T17:41:20.792Z,10.27
2018-01-05T17:43:54.191Z,10.25
2018-01-05T17:46:21.928Z,10.25
2018-01-05T17:48:50.706Z,10.20
2018-01-05T17:51:20.750Z,10.19
2018-01-05T17:53:49.796Z,10.21
2018-01-05T17:56:20.731Z,10.18
2018-01-05T17:58:50.877Z,10.18
2018-01-05T18:01:20.149Z,10.19
2018-01-05T18:03:49.345Z,10.17
2018-01-05T18:06:17.765Z,10.16
2018-01-05T18:08:52.206Z,10.19
2018-01-05T18:11:21.511Z,10.12
2018-01-05T18:13:49.862Z,10.13
2018-01-05T18:16:19.085Z,10.12
2018-01-05T18:18:47.961Z,10.11
2018-01-05T18:21:19.927Z,10.13
2018-01-05T18:23:50.758Z,10.17
2018-01-05T18:26:19.465Z,10.17
2018-01-05T18:28:50.617Z,10.17
2018-01-05T18:31:20.196Z,10.17
2018-01-05T18:33:47.858Z,10.18
2018-01-05T18:36:18.118Z,10.21
2018-01-05T18:38:46.371Z,10.26
2018-01-05T18:41:14.544Z,10.25
2018-01-05T18:43:42.217Z,10.21
2018-01-05T18:46:10.736Z,10.21
2018-01-05T18:48:38.636Z,10.22
2018-01-05T18:51:07.467Z,10.23
2018-01-05T18:53:35.092Z,10.24
2018-01-05T18:56:02.751Z,10.21
2018-01-05T18:58:32.010Z,10.19
2018-01-05T19:00:59.814Z,10.19
2018-01-05T19:03:28.710Z,10.30
2018-01-05T19:05:58.671Z,10.27
2018-01-05T19:08:31.751Z,10.24
2018-01-05T19:10:59.459Z,10.26
2018-01-05T19:13:27.841Z,10.29
2018-01-05T19:16:00.284Z,10.38
2018-01-05T19:18:29.483Z,10.37
2018-01-05T19:20:59.071Z,10.41
2018-01-05T19:23:26.951Z,10.43
2018-01-05T19:25:55.584Z,10.52
2018-01-05T19:28:24.965Z,10.57
2018-01-05T19:30:53.486Z,10.67
2018-01-05T19:33:23.076Z,10.61
2018-01-05T19:35:51.705Z,10.57
2018-01-05T19:38:19.930Z,10.90
2018-01-05T19:40:48.508Z,11.30
2018-01-05T19:43:16.090Z,11.10
2018-01-05T19:45:44.595Z,10.79
2018-01-05T19:48:14.608Z,10.55
2018-01-05T19:50:43.014Z,10.40
2018-01-05T19:53:17.751Z,10.33
2018-01-05T19:55:46.631Z,10.25
2018-01-05T19:58:14.680Z,10.21
2018-01-05T20:00:44.255Z,10.10
2018-01-05T20:03:12.863Z,10.04
2018-01-05T20:05:41.658Z,9.88
2018-01-05T20:08:12.291Z,9.83
2018-01-05T20:10:41.416Z,9.71
2018-01-05T20:13:12.927Z,9.62
2018-01-05T20:15:43.609Z,9.61
2018-01-05T20:18:12.773Z,9.55
2018-01-05T20:20:41.164Z,9.46
2018-01-05T20:23:09.471Z,9.42
2018-01-05T20:25:38.664Z,9.39
2018-01-05T20:28:07.206Z,9.36
2018-01-05T20:30:36.779Z,9.30
2018-01-05T20:33:05.926Z,9.28
2018-01-05T20:35:34.379Z,9.19
2018-01-05T20:38:03.182Z,9.22
2018-01-05T20:40:32.502Z,9.24
2018-01-05T20:43:00.840Z,9.16
2018-01-05T20:45:29.769Z,9.07
2018-01-05T20:48:00.694Z,9.05
2018-01-05T20:50:32.988Z,9.05
2018-01-05T20:53:04.589Z,9.02
2018-01-05T20:55:32.348Z,8.97
2018-01-05T20:58:02.710Z,8.93
2018-01-05T21:00:33.051Z,8.92
2018-01-05T21:03:04.987Z,8.88
2018-01-05T21:05:32.801Z,8.86
2018-01-05T21:08:02.649Z,8.84
2018-01-05T21:10:30.605Z,8.76
2018-01-05T21:13:04.418Z,8.78
2018-01-05T21:15:32.947Z,8.78
2018-01-05T21:18:00.544Z,9.27
2018-01-05T21:20:29.767Z,9.20
2018-01-05T21:22:59.368Z,9.08
2018-01-05T21:25:29.772Z,8.94
2018-01-05T21:27:57.879Z,8.88
2018-01-05T21:30:27.349Z,8.83
2018-01-05T21:32:57.102Z,8.75
2018-01-05T21:35:25.608Z,8.67
2018-01-05T21:37:54.050Z,8.64
2018-01-05T21:40:24.366Z,8.67
2018-01-05T21:42:56.234Z,8.68
2018-01-05T21:45:27.655Z,8.65
2018-01-05T21:47:56.882Z,8.60
2018-01-05T21:50:25.226Z,8.58
2018-01-05T21:52:53.714Z,8.53
2018-01-05T21:55:22.195Z,8.47
2018-01-05T21:57:52.707Z,8.48
2018-01-05T22:00:20.555Z,8.44
2018-01-05T22:02:49.901Z,8.49
2018-01-05T22:05:19.149Z,8.52
2018-01-05T22:07:48.230Z,8.51
2018-01-05T22:10:19.155Z,8.54
2018-01-05T22:12:49.654Z,8.56
2018-01-05T22:15:19.120Z,8.57
2018-01-05T22:17:50.995Z,8.60
2018-01-05T22:20:20.037Z,8.56
2018-01-05T22:22:51.211Z,8.48
2018-01-05T22:25:19.475Z,8.42
2018-01-05T22:27:47.224Z,8.31
2018-01-05T22:30:14.832Z,8.24
2018-01-05T22:32:42.491Z,8.16
2018-01-05T22:35:11.718Z,8.12
2018-01-05T22:37:43.072Z,8.10
2018-01-05T22:40:11.920Z,8.11
2018-01-05T22:42:48.763Z,8.10
2018-01-05T22:45:19.247Z,8.16
2018-01-05T22:47:46.866Z,8.03
2018-01-05T22:50:15.769Z,7.86
2018-01-05T22:52:43.906Z,7.83
2018-01-05T22:55:12.919Z,7.84
2018-01-05T22:57:42.631Z,7.80
2018-01-05T23:00:11.927Z,7.71
2018-01-05T23:02:42.194Z,7.71
2018-01-05T23:05:12.144Z,7.72
2018-01-05T23:07:40.909Z,7.76
2018-01-05T23:10:11.131Z,7.79
2018-01-05T23:12:40.239Z,7.77
2018-01-05T23:15:12.028Z,7.82
2018-01-05T23:17:41.686Z,7.85
2018-01-05T23:20:11.555Z,7.91
2018-01-05T23:22:41.805Z,7.89
2018-01-05T23:25:10.950Z,7.90
2018-01-05T23:27:41.178Z,7.92
2018-01-05T23:30:13.238Z,7.93
2018-01-05T23:32:42.631Z,7.92
2018-01-05T23:35:13.383Z,7.94
2018-01-05T23:37:40.971Z,7.99
2018-01-05T23:40:08.605Z,8.00
2018-01-05T23:42:36.690Z,8.01
2018-01-05T23:45:05.937Z,7.96
2018-01-05T23:47:35.281Z,7.94
2018-01-05T23:50:10.352Z,7.92
2018-01-05T23:52:40.226Z,7.95
2018-01-05T23:55:08.944Z,7.87
2018-01-05T23:57:37.047Z,7.91
